sensor_id;sensor_type;location;lat;lon;timestamp;P1;durP1;ratioP1;P2;durP2;ratioP2
773;SDS011;370;48.810;9.150;2023-10-19T00:01:25;8.93;;;4.53;;
773;SDS011;370;48.810;9.150;2023-10-19T00:03:54;12.38;;;5.32;;
773;SDS011;370;48.810;9.150;2023-10-19T00:06:21;11.70;;;4.35;;
773;SDS011;370;48.810;9.150;2023-10-19T00:08:49;9.95;;;5.03;;
773;SDS011;370;48.810;9.150;2023-10-19T00:11:17;18.77;;;6.82;;
773;SDS011;370;48.810;9.150;2023-10-19T00:13:48;8.32;;;4.38;;
773;SDS011;370;48.810;9.150;2023-10-19T00:16:15;10.75;;;5.18;;
773;SDS011;370;48.810;9.150;2023-10-19T00:18:42;13.68;;;5.63;;
773;SDS011;370;48.810;9.150;2023-10-19T00:21:09;9.20;;;5.00;;
773;SDS011;370;48.810;9.150;2023-10-19T00:23:45;12.80;;;5.15;;
773;SDS011;370;48.810;9.150;2023-10-19T00:26:12;9.82;;;5.25;;
773;SDS011;370;48.810;9.150;2023-10-19T00:28:42;8.10;;;4.70;;
773;SDS011;370;48.810;9.150;2023-10-19T00:31:11;10.27;;;5.50;;
773;SDS011;370;48.810;9.150;2023-10-19T00:33:38;9.32;;;4.60;;
773;SDS011;370;48.810;9.150;2023-10-19T00:36:06;10.45;;;3.53;;
773;SDS011;370;48.810;9.150;2023-10-19T00:38:35;9.63;;;5.03;;
773;SDS011;370;48.810;9.150;2023-10-19T00:41:16;13.30;;;5.45;;
773;SDS011;370;48.810;9.150;2023-10-19T00:43:46;5.68;;;4.28;;
773;SDS011;370;48.810;9.150;2023-10-19T00:46:19;5.32;;;3.10;;
773;SDS011;370;48.810;9.150;2023-10-19T00:48:56;4.18;;;2.45;;
773;SDS011;370;48.810;9.150;2023-10-19T00:51:26;8.27;;;2.63;;
773;SDS011;370;48.810;9.150;2023-10-19T00:54:12;3.75;;;2.50;;
773;SDS011;370;48.810;9.150;2023-10-19T00:56:47;2.55;;;2.00;;
773;SDS011;370;48.810;9.150;2023-10-19T00:59:14;7.78;;;2.30;;
773;SDS011;370;48.810;9.150;2023-10-19T01:01:48;3.78;;;2.55;;
773;SDS011;370;48.810;9.150;2023-10-19T01:04:18;3.55;;;2.47;;
773;SDS011;370;48.810;9.150;2023-10-19T01:06:48;4.07;;;2.75;;
773;SDS011;370;48.810;9.150;2023-10-19T01:09:27;8.00;;;2.88;;
773;SDS011;370;48.810;9.150;2023-10-19T01:11:54;3.78;;;2.25;;
773;SDS011;370;48.810;9.150;2023-10-19T01:14:23;3.25;;;2.30;;
773;SDS011;370;48.810;9.150;2023-10-19T01:20:15;4.20;;;2.42;;
773;SDS011;370;48.810;9.150;2023-10-19T01:22:52;4.50;;;2.50;;
773;SDS011;370;48.810;9.150;2023-10-19T01:25:31;7.18;;;2.22;;
773;SDS011;370;48.810;9.150;2023-10-19T01:28:00;3.63;;;2.08;;
773;SDS011;370;48.810;9.150;2023-10-19T01:30:32;3.75;;;1.70;;
773;SDS011;370;48.810;9.150;2023-10-19T01:32:59;3.20;;;2.20;;
773;SDS011;370;48.810;9.150;2023-10-19T01:35:27;3.60;;;2.25;;
773;SDS011;370;48.810;9.150;2023-10-19T01:38:15;4.22;;;2.50;;
773;SDS011;370;48.810;9.150;2023-10-19T01:40:41;6.93;;;3.60;;
773;SDS011;370;48.810;9.150;2023-10-19T01:43:11;9.50;;;4.10;;
773;SDS011;370;48.810;9.150;2023-10-19T01:45:45;13.70;;;5.78;;
773;SDS011;370;48.810;9.150;2023-10-19T01:48:11;14.48;;;7.32;;
773;SDS011;370;48.810;9.150;2023-10-19T01:50:38;12.95;;;5.75;;
773;SDS011;370;48.810;9.150;2023-10-19T01:53:05;12.13;;;6.03;;
773;SDS011;370;48.810;9.150;2023-10-19T01:55:39;10.80;;;5.45;;
773;SDS011;370;48.810;9.150;2023-10-19T01:58:06;11.73;;;5.45;;
773;SDS011;370;48.810;9.150;2023-10-19T02:00:33;24.92;;;5.93;;
773;SDS011;370;48.810;9.150;2023-10-19T02:03:05;14.32;;;5.95;;
773;SDS011;370;48.810;9.150;2023-10-19T02:05:33;9.32;;;4.65;;
773;SDS011;370;48.810;9.150;2023-10-19T02:08:05;11.30;;;5.95;;
773;SDS011;370;48.810;9.150;2023-10-19T02:10:32;17.98;;;7.25;;
773;SDS011;370;48.810;9.150;2023-10-19T02:13:00;15.68;;;5.60;;
773;SDS011;370;48.810;9.150;2023-10-19T02:15:31;23.02;;;5.72;;
773;SDS011;370;48.810;9.150;2023-10-19T02:17:59;15.50;;;5.65;;
773;SDS011;370;48.810;9.150;2023-10-19T02:20:26;12.50;;;5.80;;
773;SDS011;370;48.810;9.150;2023-10-19T02:22:54;11.02;;;5.82;;
773;SDS011;370;48.810;9.150;2023-10-19T02:25:22;17.25;;;6.55;;
773;SDS011;370;48.810;9.150;2023-10-19T02:27:50;14.32;;;5.88;;
773;SDS011;370;48.810;9.150;2023-10-19T02:30:18;8.90;;;4.53;;
773;SDS011;370;48.810;9.150;2023-10-19T02:32:45;15.60;;;6.30;;
773;SDS011;370;48.810;9.150;2023-10-19T02:35:12;16.38;;;6.28;;
773;SDS011;370;48.810;9.150;2023-10-19T02:37:40;10.15;;;4.45;;
773;SDS011;370;48.810;9.150;2023-10-19T02:40:06;12.67;;;6.67;;
773;SDS011;370;48.810;9.150;2023-10-19T02:42:37;22.77;;;5.35;;
773;SDS011;370;48.810;9.150;2023-10-19T02:45:03;6.20;;;4.00;;
773;SDS011;370;48.810;9.150;2023-10-19T02:47:32;13.27;;;5.03;;
773;SDS011;370;48.810;9.150;2023-10-19T02:49:58;9.70;;;4.90;;
773;SDS011;370;48.810;9.150;2023-10-19T02:52:25;9.52;;;5.70;;
773;SDS011;370;48.810;9.150;2023-10-19T02:54:52;13.65;;;4.30;;
773;SDS011;370;48.810;9.150;2023-10-19T02:57:22;13.13;;;6.30;;
773;SDS011;370;48.810;9.150;2023-10-19T02:59:49;11.80;;;5.43;;
773;SDS011;370;48.810;9.150;2023-10-19T03:02:15;8.00;;;4.45;;
773;SDS011;370;48.810;9.150;2023-10-19T03:04:44;18.30;;;6.60;;
773;SDS011;370;48.810;9.150;2023-10-19T03:07:10;9.07;;;4.57;;
773;SDS011;370;48.810;9.150;2023-10-19T03:09:38;8.30;;;4.97;;
773;SDS011;370;48.810;9.150;2023-10-19T03:12:04;7.03;;;4.10;;
773;SDS011;370;48.810;9.150;2023-10-19T03:14:35;8.27;;;3.92;;
773;SDS011;370;48.810;9.150;2023-10-19T03:17:02;6.95;;;3.65;;
773;SDS011;370;48.810;9.150;2023-10-19T03:19:33;10.48;;;4.25;;
773;SDS011;370;48.810;9.150;2023-10-19T03:22:01;10.35;;;4.68;;
773;SDS011;370;48.810;9.150;2023-10-19T03:24:31;12.18;;;5.38;;
773;SDS011;370;48.810;9.150;2023-10-19T03:27:00;12.27;;;5.38;;
773;SDS011;370;48.810;9.150;2023-10-19T03:29:33;7.30;;;4.50;;
773;SDS011;370;48.810;9.150;2023-10-19T03:32:03;8.77;;;4.00;;
773;SDS011;370;48.810;9.150;2023-10-19T03:34:31;8.23;;;3.95;;
773;SDS011;370;48.810;9.150;2023-10-19T03:36:58;7.07;;;4.63;;
773;SDS011;370;48.810;9.150;2023-10-19T03:39:31;8.25;;;4.13;;
773;SDS011;370;48.810;9.150;2023-10-19T03:41:59;13.30;;;4.88;;
773;SDS011;370;48.810;9.150;2023-10-19T03:44:26;7.18;;;4.00;;
773;SDS011;370;48.810;9.150;2023-10-19T03:47:04;7.57;;;4.25;;
773;SDS011;370;48.810;9.150;2023-10-19T03:49:36;11.82;;;5.85;;
773;SDS011;370;48.810;9.150;2023-10-19T03:52:04;18.75;;;5.95;;
773;SDS011;370;48.810;9.150;2023-10-19T03:54:46;10.82;;;5.00;;
773;SDS011;370;48.810;9.150;2023-10-19T03:57:14;14.82;;;6.45;;
773;SDS011;370;48.810;9.150;2023-10-19T03:59:44;12.27;;;5.35;;
773;SDS011;370;48.810;9.150;2023-10-19T04:02:12;14.63;;;5.63;;
773;SDS011;370;48.810;9.150;2023-10-19T04:04:41;15.07;;;6.65;;
773;SDS011;370;48.810;9.150;2023-10-19T04:07:09;17.15;;;6.53;;
773;SDS011;370;48.810;9.150;2023-10-19T04:09:47;13.05;;;5.68;;
773;SDS011;370;48.810;9.150;2023-10-19T04:12:25;19.85;;;5.45;;
773;SDS011;370;48.810;9.150;2023-10-19T04:14:54;15.25;;;6.25;;
773;SDS011;370;48.810;9.150;2023-10-19T04:17:20;13.60;;;6.00;;
773;SDS011;370;48.810;9.150;2023-10-19T04:19:49;10.20;;;5.45;;
773;SDS011;370;48.810;9.150;2023-10-19T04:22:16;12.98;;;5.03;;
773;SDS011;370;48.810;9.150;2023-10-19T04:24:50;13.23;;;6.07;;
773;SDS011;370;48.810;9.150;2023-10-19T04:27:18;11.20;;;6.57;;
773;SDS011;370;48.810;9.150;2023-10-19T04:29:46;10.38;;;5.15;;
773;SDS011;370;48.810;9.150;2023-10-19T04:32:14;16.92;;;5.43;;
773;SDS011;370;48.810;9.150;2023-10-19T04:34:50;10.75;;;5.50;;
773;SDS011;370;48.810;9.150;2023-10-19T04:37:17;10.43;;;5.40;;
773;SDS011;370;48.810;9.150;2023-10-19T04:39:44;13.52;;;5.72;;
773;SDS011;370;48.810;9.150;2023-10-19T04:42:12;10.52;;;4.93;;
773;SDS011;370;48.810;9.150;2023-10-19T04:44:39;13.68;;;5.55;;
773;SDS011;370;48.810;9.150;2023-10-19T04:47:06;7.93;;;5.07;;
773;SDS011;370;48.810;9.150;2023-10-19T04:49:33;17.75;;;5.00;;
773;SDS011;370;48.810;9.150;2023-10-19T04:52:01;10.70;;;4.97;;
773;SDS011;370;48.810;9.150;2023-10-19T04:54:28;14.23;;;5.22;;
773;SDS011;370;48.810;9.150;2023-10-19T04:56:55;13.13;;;5.72;;
773;SDS011;370;48.810;9.150;2023-10-19T04:59:23;8.27;;;3.90;;
773;SDS011;370;48.810;9.150;2023-10-19T05:01:49;9.18;;;4.72;;
773;SDS011;370;48.810;9.150;2023-10-19T05:04:16;11.02;;;5.32;;
773;SDS011;370;48.810;9.150;2023-10-19T05:06:43;9.50;;;5.65;;
773;SDS011;370;48.810;9.150;2023-10-19T05:09:10;14.35;;;5.10;;
773;SDS011;370;48.810;9.150;2023-10-19T05:11:37;11.70;;;4.90;;
773;SDS011;370;48.810;9.150;2023-10-19T05:14:04;18.48;;;5.53;;
773;SDS011;370;48.810;9.150;2023-10-19T05:16:32;10.73;;;5.53;;
773;SDS011;370;48.810;9.150;2023-10-19T05:18:59;11.10;;;5.63;;
773;SDS011;370;48.810;9.150;2023-10-19T05:21:26;12.85;;;5.10;;
773;SDS011;370;48.810;9.150;2023-10-19T05:23:55;13.38;;;4.45;;
773;SDS011;370;48.810;9.150;2023-10-19T05:26:22;14.93;;;5.00;;
773;SDS011;370;48.810;9.150;2023-10-19T05:28:48;7.10;;;3.97;;
773;SDS011;370;48.810;9.150;2023-10-19T05:31:15;9.98;;;5.18;;
773;SDS011;370;48.810;9.150;2023-10-19T05:33:43;9.23;;;3.90;;
773;SDS011;370;48.810;9.150;2023-10-19T05:36:13;8.75;;;4.60;;
773;SDS011;370;48.810;9.150;2023-10-19T05:38:40;8.18;;;5.10;;
773;SDS011;370;48.810;9.150;2023-10-19T05:41:07;11.35;;;6.28;;
773;SDS011;370;48.810;9.150;2023-10-19T05:43:35;11.23;;;4.70;;
773;SDS011;370;48.810;9.150;2023-10-19T05:46:02;9.52;;;5.05;;
773;SDS011;370;48.810;9.150;2023-10-19T05:48:29;7.15;;;3.60;;
773;SDS011;370;48.810;9.150;2023-10-19T05:50:57;10.40;;;5.50;;
773;SDS011;370;48.810;9.150;2023-10-19T05:53:24;11.43;;;4.40;;
773;SDS011;370;48.810;9.150;2023-10-19T05:55:51;7.55;;;3.92;;
773;SDS011;370;48.810;9.150;2023-10-19T05:58:17;8.70;;;4.20;;
773;SDS011;370;48.810;9.150;2023-10-19T06:00:45;9.73;;;4.43;;
773;SDS011;370;48.810;9.150;2023-10-19T06:03:12;11.95;;;4.15;;
773;SDS011;370;48.810;9.150;2023-10-19T06:05:39;16.08;;;6.05;;
773;SDS011;370;48.810;9.150;2023-10-19T06:08:07;12.52;;;6.13;;
773;SDS011;370;48.810;9.150;2023-10-19T06:10:34;12.38;;;6.10;;
773;SDS011;370;48.810;9.150;2023-10-19T06:13:04;16.02;;;6.60;;
773;SDS011;370;48.810;9.150;2023-10-19T06:15:35;10.57;;;5.13;;
773;SDS011;370;48.810;9.150;2023-10-19T06:18:02;16.42;;;6.45;;
773;SDS011;370;48.810;9.150;2023-10-19T06:20:29;10.82;;;5.80;;
773;SDS011;370;48.810;9.150;2023-10-19T06:22:56;12.00;;;5.55;;
773;SDS011;370;48.810;9.150;2023-10-19T06:25:30;19.60;;;6.75;;
773;SDS011;370;48.810;9.150;2023-10-19T06:27:59;19.65;;;6.80;;
773;SDS011;370;48.810;9.150;2023-10-19T06:30:27;18.55;;;6.40;;
773;SDS011;370;48.810;9.150;2023-10-19T06:32:54;13.85;;;5.30;;
773;SDS011;370;48.810;9.150;2023-10-19T06:35:25;10.63;;;5.40;;
773;SDS011;370;48.810;9.150;2023-10-19T06:37:52;13.60;;;6.50;;
773;SDS011;370;48.810;9.150;2023-10-19T06:40:20;14.65;;;5.22;;
773;SDS011;370;48.810;9.150;2023-10-19T06:42:48;8.60;;;5.10;;
773;SDS011;370;48.810;9.150;2023-10-19T06:45:16;15.00;;;6.60;;
773;SDS011;370;48.810;9.150;2023-10-19T06:47:44;10.90;;;6.50;;
773;SDS011;370;48.810;9.150;2023-10-19T06:50:12;17.75;;;5.32;;
773;SDS011;370;48.810;9.150;2023-10-19T06:52:40;9.02;;;5.03;;
773;SDS011;370;48.810;9.150;2023-10-19T06:55:09;11.77;;;4.93;;
773;SDS011;370;48.810;9.150;2023-10-19T06:57:39;13.82;;;5.68;;
773;SDS011;370;48.810;9.150;2023-10-19T07:00:10;27.50;;;6.20;;
773;SDS011;370;48.810;9.150;2023-10-19T07:02:40;14.07;;;5.40;;
773;SDS011;370;48.810;9.150;2023-10-19T07:05:08;12.50;;;6.70;;
773;SDS011;370;48.810;9.150;2023-10-19T07:07:36;20.70;;;6.20;;
773;SDS011;370;48.810;9.150;2023-10-19T07:10:05;19.13;;;5.35;;
773;SDS011;370;48.810;9.150;2023-10-19T07:12:33;19.17;;;6.75;;
773;SDS011;370;48.810;9.150;2023-10-19T07:15:00;8.93;;;5.00;;
773;SDS011;370;48.810;9.150;2023-10-19T07:17:29;13.23;;;5.63;;
773;SDS011;370;48.810;9.150;2023-10-19T07:19:57;10.52;;;5.72;;
773;SDS011;370;48.810;9.150;2023-10-19T07:22:23;13.27;;;6.60;;
773;SDS011;370;48.810;9.150;2023-10-19T07:24:50;9.68;;;5.13;;
773;SDS011;370;48.810;9.150;2023-10-19T07:27:17;13.70;;;5.70;;
773;SDS011;370;48.810;9.150;2023-10-19T07:29:44;14.75;;;5.75;;
773;SDS011;370;48.810;9.150;2023-10-19T07:32:12;13.77;;;6.47;;
773;SDS011;370;48.810;9.150;2023-10-19T07:34:43;12.77;;;6.72;;
773;SDS011;370;48.810;9.150;2023-10-19T07:37:10;8.55;;;5.50;;
773;SDS011;370;48.810;9.150;2023-10-19T07:39:40;15.32;;;7.07;;
773;SDS011;370;48.810;9.150;2023-10-19T07:42:10;15.07;;;6.40;;
773;SDS011;370;48.810;9.150;2023-10-19T07:44:37;12.25;;;7.13;;
773;SDS011;370;48.810;9.150;2023-10-19T07:47:04;13.02;;;6.22;;
773;SDS011;370;48.810;9.150;2023-10-19T07:49:34;12.03;;;5.67;;
773;SDS011;370;48.810;9.150;2023-10-19T07:52:04;24.80;;;6.23;;
773;SDS011;370;48.810;9.150;2023-10-19T07:54:32;15.23;;;6.80;;
773;SDS011;370;48.810;9.150;2023-10-19T07:57:00;15.73;;;7.23;;
773;SDS011;370;48.810;9.150;2023-10-19T07:59:30;22.93;;;7.53;;
773;SDS011;370;48.810;9.150;2023-10-19T08:01:57;13.37;;;6.50;;
773;SDS011;370;48.810;9.150;2023-10-19T08:04:26;12.30;;;7.27;;
773;SDS011;370;48.810;9.150;2023-10-19T08:06:53;12.20;;;6.70;;
773;SDS011;370;48.810;9.150;2023-10-19T08:09:21;18.03;;;6.30;;
773;SDS011;370;48.810;9.150;2023-10-19T08:11:49;12.33;;;5.90;;
773;SDS011;370;48.810;9.150;2023-10-19T08:14:20;15.77;;;6.00;;
773;SDS011;370;48.810;9.150;2023-10-19T08:16:47;12.37;;;5.40;;
773;SDS011;370;48.810;9.150;2023-10-19T08:19:14;12.10;;;6.40;;
773;SDS011;370;48.810;9.150;2023-10-19T08:21:40;14.70;;;7.07;;
773;SDS011;370;48.810;9.150;2023-10-19T08:24:07;18.40;;;8.00;;
773;SDS011;370;48.810;9.150;2023-10-19T08:26:40;17.33;;;6.37;;
773;SDS011;370;48.810;9.150;2023-10-19T08:29:07;7.83;;;4.80;;
773;SDS011;370;48.810;9.150;2023-10-19T08:31:38;13.10;;;6.00;;
773;SDS011;370;48.810;9.150;2023-10-19T08:34:05;16.93;;;5.53;;
773;SDS011;370;48.810;9.150;2023-10-19T08:36:31;13.10;;;5.90;;
773;SDS011;370;48.810;9.150;2023-10-19T08:38:59;9.13;;;5.30;;
773;SDS011;370;48.810;9.150;2023-10-19T08:41:30;11.30;;;5.03;;
773;SDS011;370;48.810;9.150;2023-10-19T08:43:59;10.90;;;5.50;;
773;SDS011;370;48.810;9.150;2023-10-19T08:46:26;17.37;;;5.90;;
773;SDS011;370;48.810;9.150;2023-10-19T08:48:53;8.60;;;4.83;;
773;SDS011;370;48.810;9.150;2023-10-19T08:51:21;8.23;;;5.30;;
773;SDS011;370;48.810;9.150;2023-10-19T08:53:50;10.07;;;5.40;;
773;SDS011;370;48.810;9.150;2023-10-19T08:56:20;12.90;;;5.80;;
773;SDS011;370;48.810;9.150;2023-10-19T08:58:48;6.10;;;4.10;;
773;SDS011;370;48.810;9.150;2023-10-19T09:01:19;9.97;;;4.90;;
773;SDS011;370;48.810;9.150;2023-10-19T09:03:49;9.00;;;4.70;;
773;SDS011;370;48.810;9.150;2023-10-19T09:06:16;14.33;;;5.03;;
773;SDS011;370;48.810;9.150;2023-10-19T09:08:46;15.93;;;5.80;;
773;SDS011;370;48.810;9.150;2023-10-19T09:11:14;11.33;;;6.40;;
773;SDS011;370;48.810;9.150;2023-10-19T09:13:44;10.10;;;5.87;;
773;SDS011;370;48.810;9.150;2023-10-19T09:16:12;8.40;;;5.10;;
773;SDS011;370;48.810;9.150;2023-10-19T09:18:41;8.40;;;4.93;;
773;SDS011;370;48.810;9.150;2023-10-19T09:21:10;10.10;;;5.10;;
773;SDS011;370;48.810;9.150;2023-10-19T09:23:37;10.10;;;5.10;;
773;SDS011;370;48.810;9.150;2023-10-19T09:26:05;11.43;;;5.80;;
773;SDS011;370;48.810;9.150;2023-10-19T09:28:34;7.37;;;5.07;;
773;SDS011;370;48.810;9.150;2023-10-19T09:31:02;10.30;;;5.00;;
773;SDS011;370;48.810;9.150;2023-10-19T09:33:30;9.90;;;5.27;;
773;SDS011;370;48.810;9.150;2023-10-19T09:36:01;7.70;;;5.10;;
773;SDS011;370;48.810;9.150;2023-10-19T09:38:29;6.70;;;3.77;;
773;SDS011;370;48.810;9.150;2023-10-19T09:40:58;4.40;;;3.20;;
773;SDS011;370;48.810;9.150;2023-10-19T09:43:30;6.73;;;2.93;;
773;SDS011;370;48.810;9.150;2023-10-19T09:46:00;3.00;;;2.80;;
773;SDS011;370;48.810;9.150;2023-10-19T09:48:32;14.63;;;3.20;;
773;SDS011;370;48.810;9.150;2023-10-19T09:51:08;7.83;;;4.00;;
773;SDS011;370;48.810;9.150;2023-10-19T09:53:36;7.17;;;4.40;;
773;SDS011;370;48.810;9.150;2023-10-19T09:56:05;5.70;;;4.13;;
773;SDS011;370;48.810;9.150;2023-10-19T09:58:35;10.87;;;3.93;;
773;SDS011;370;48.810;9.150;2023-10-19T10:01:05;19.83;;;4.00;;
773;SDS011;370;48.810;9.150;2023-10-19T10:03:46;6.87;;;4.10;;
773;SDS011;370;48.810;9.150;2023-10-19T10:06:17;15.83;;;4.00;;
773;SDS011;370;48.810;9.150;2023-10-19T10:08:53;8.57;;;4.13;;
773;SDS011;370;48.810;9.150;2023-10-19T10:11:21;8.20;;;4.20;;
773;SDS011;370;48.810;9.150;2023-10-19T10:13:51;13.30;;;4.07;;
773;SDS011;370;48.810;9.150;2023-10-19T10:16:20;10.93;;;3.93;;
773;SDS011;370;48.810;9.150;2023-10-19T10:18:50;11.57;;;4.90;;
773;SDS011;370;48.810;9.150;2023-10-19T10:21:22;22.87;;;4.47;;
773;SDS011;370;48.810;9.150;2023-10-19T10:23:51;7.07;;;4.00;;
773;SDS011;370;48.810;9.150;2023-10-19T10:26:20;11.63;;;3.73;;
773;SDS011;370;48.810;9.150;2023-10-19T10:29:08;14.00;;;3.60;;
773;SDS011;370;48.810;9.150;2023-10-19T10:31:40;8.40;;;4.00;;
773;SDS011;370;48.810;9.150;2023-10-19T10:34:08;6.70;;;4.03;;
773;SDS011;370;48.810;9.150;2023-10-19T10:39:26;12.73;;;4.13;;
773;SDS011;370;48.810;9.150;2023-10-19T10:41:56;11.23;;;3.60;;
773;SDS011;370;48.810;9.150;2023-10-19T10:44:35;5.40;;;3.00;;
773;SDS011;370;48.810;9.150;2023-10-19T10:47:03;7.10;;;4.00;;
773;SDS011;370;48.810;9.150;2023-10-19T10:49:33;8.40;;;3.00;;
773;SDS011;370;48.810;9.150;2023-10-19T10:52:01;15.90;;;3.57;;
773;SDS011;370;48.810;9.150;2023-10-19T10:54:27;5.27;;;3.20;;
773;SDS011;370;48.810;9.150;2023-10-19T10:56:54;5.10;;;3.10;;
773;SDS011;370;48.810;9.150;2023-10-19T10:59:21;8.30;;;3.57;;
773;SDS011;370;48.810;9.150;2023-10-19T11:01:48;9.00;;;3.50;;
773;SDS011;370;48.810;9.150;2023-10-19T11:04:15;5.30;;;2.90;;
773;SDS011;370;48.810;9.150;2023-10-19T11:06:45;14.83;;;3.67;;
773;SDS011;370;48.810;9.150;2023-10-19T11:09:15;5.80;;;3.93;;
773;SDS011;370;48.810;9.150;2023-10-19T11:11:44;6.77;;;3.23;;
773;SDS011;370;48.810;9.150;2023-10-19T11:14:11;5.90;;;3.20;;
773;SDS011;370;48.810;9.150;2023-10-19T11:16:38;5.40;;;2.83;;
773;SDS011;370;48.810;9.150;2023-10-19T11:19:05;16.67;;;3.70;;
773;SDS011;370;48.810;9.150;2023-10-19T11:21:32;2.83;;;1.93;;
773;SDS011;370;48.810;9.150;2023-10-19T11:23:59;3.30;;;1.97;;
773;SDS011;370;48.810;9.150;2023-10-19T11:26:28;1.67;;;1.17;;
773;SDS011;370;48.810;9.150;2023-10-19T11:28:58;1.30;;;1.20;;
773;SDS011;370;48.810;9.150;2023-10-19T11:31:26;1.57;;;1.40;;
773;SDS011;370;48.810;9.150;2023-10-19T11:34:02;2.30;;;1.63;;
773;SDS011;370;48.810;9.150;2023-10-19T11:36:29;1.20;;;1.07;;
773;SDS011;370;48.810;9.150;2023-10-19T11:38:56;0.90;;;0.90;;
773;SDS011;370;48.810;9.150;2023-10-19T11:41:24;2.90;;;1.70;;
773;SDS011;370;48.810;9.150;2023-10-19T11:43:52;2.70;;;1.77;;
773;SDS011;370;48.810;9.150;2023-10-19T11:46:19;2.20;;;1.60;;
773;SDS011;370;48.810;9.150;2023-10-19T11:48:48;1.50;;;1.23;;
773;SDS011;370;48.810;9.150;2023-10-19T11:51:15;4.80;;;1.80;;
773;SDS011;370;48.810;9.150;2023-10-19T11:53:42;2.03;;;1.40;;
773;SDS011;370;48.810;9.150;2023-10-19T11:56:11;2.00;;;1.27;;
773;SDS011;370;48.810;9.150;2023-10-19T11:58:41;5.17;;;2.00;;
773;SDS011;370;48.810;9.150;2023-10-19T12:01:11;9.37;;;2.90;;
773;SDS011;370;48.810;9.150;2023-10-19T12:03:38;7.20;;;2.73;;
773;SDS011;370;48.810;9.150;2023-10-19T12:06:05;4.70;;;2.00;;
773;SDS011;370;48.810;9.150;2023-10-19T12:08:33;14.53;;;2.20;;
773;SDS011;370;48.810;9.150;2023-10-19T12:11:01;2.10;;;1.60;;
773;SDS011;370;48.810;9.150;2023-10-19T12:13:29;3.77;;;2.10;;
773;SDS011;370;48.810;9.150;2023-10-19T12:15:56;2.50;;;1.70;;
773;SDS011;370;48.810;9.150;2023-10-19T12:18:24;2.50;;;1.77;;
773;SDS011;370;48.810;9.150;2023-10-19T12:20:53;1.63;;;1.30;;
773;SDS011;370;48.810;9.150;2023-10-19T12:23:22;3.10;;;2.03;;
773;SDS011;370;48.810;9.150;2023-10-19T12:25:49;3.80;;;2.97;;
773;SDS011;370;48.810;9.150;2023-10-19T12:28:16;8.67;;;3.27;;
773;SDS011;370;48.810;9.150;2023-10-19T12:30:43;7.23;;;3.20;;
773;SDS011;370;48.810;9.150;2023-10-19T12:33:10;23.37;;;7.90;;
773;SDS011;370;48.810;9.150;2023-10-19T12:35:39;10.73;;;4.87;;
773;SDS011;370;48.810;9.150;2023-10-19T12:38:19;14.23;;;3.77;;
773;SDS011;370;48.810;9.150;2023-10-19T12:40:46;7.30;;;3.67;;
773;SDS011;370;48.810;9.150;2023-10-19T12:43:15;9.23;;;4.50;;
773;SDS011;370;48.810;9.150;2023-10-19T12:45:44;6.50;;;3.83;;
773;SDS011;370;48.810;9.150;2023-10-19T12:48:16;19.87;;;4.53;;
773;SDS011;370;48.810;9.150;2023-10-19T12:50:44;7.00;;;4.10;;
773;SDS011;370;48.810;9.150;2023-10-19T12:53:11;6.53;;;3.40;;
773;SDS011;370;48.810;9.150;2023-10-19T12:55:39;6.90;;;3.07;;
773;SDS011;370;48.810;9.150;2023-10-19T12:58:08;8.60;;;3.90;;
773;SDS011;370;48.810;9.150;2023-10-19T13:00:37;6.13;;;2.70;;
773;SDS011;370;48.810;9.150;2023-10-19T13:03:09;5.23;;;3.47;;
773;SDS011;370;48.810;9.150;2023-10-19T13:05:38;10.50;;;3.63;;
773;SDS011;370;48.810;9.150;2023-10-19T13:08:08;6.13;;;3.80;;
773;SDS011;370;48.810;9.150;2023-10-19T13:10:38;16.00;;;3.43;;
773;SDS011;370;48.810;9.150;2023-10-19T13:13:08;8.27;;;3.93;;
773;SDS011;370;48.810;9.150;2023-10-19T13:15:37;5.47;;;2.93;;
773;SDS011;370;48.810;9.150;2023-10-19T13:18:05;7.50;;;3.50;;
773;SDS011;370;48.810;9.150;2023-10-19T13:20:34;9.00;;;4.00;;
773;SDS011;370;48.810;9.150;2023-10-19T13:23:03;7.17;;;4.37;;
773;SDS011;370;48.810;9.150;2023-10-19T13:25:33;5.90;;;4.03;;
773;SDS011;370;48.810;9.150;2023-10-19T13:28:15;10.23;;;4.83;;
773;SDS011;370;48.810;9.150;2023-10-19T13:30:45;8.60;;;4.73;;
773;SDS011;370;48.810;9.150;2023-10-19T13:33:13;5.03;;;3.80;;
773;SDS011;370;48.810;9.150;2023-10-19T13:35:41;9.03;;;4.10;;
773;SDS011;370;48.810;9.150;2023-10-19T13:38:09;6.03;;;3.90;;
773;SDS011;370;48.810;9.150;2023-10-19T13:40:38;6.37;;;4.00;;
773;SDS011;370;48.810;9.150;2023-10-19T13:43:05;8.13;;;4.47;;
773;SDS011;370;48.810;9.150;2023-10-19T13:45:33;9.13;;;4.73;;
773;SDS011;370;48.810;9.150;2023-10-19T13:48:01;10.33;;;3.83;;
773;SDS011;370;48.810;9.150;2023-10-19T13:50:29;15.57;;;4.57;;
773;SDS011;370;48.810;9.150;2023-10-19T13:52:56;9.77;;;4.80;;
773;SDS011;370;48.810;9.150;2023-10-19T13:55:25;8.80;;;4.53;;
773;SDS011;370;48.810;9.150;2023-10-19T13:57:54;9.60;;;4.87;;
773;SDS011;370;48.810;9.150;2023-10-19T14:00:22;6.23;;;4.53;;
773;SDS011;370;48.810;9.150;2023-10-19T14:02:50;8.43;;;4.67;;
773;SDS011;370;48.810;9.150;2023-10-19T14:05:19;11.70;;;4.30;;
773;SDS011;370;48.810;9.150;2023-10-19T14:07:49;12.20;;;5.50;;
773;SDS011;370;48.810;9.150;2023-10-19T14:10:16;7.57;;;4.30;;
773;SDS011;370;48.810;9.150;2023-10-19T14:12:44;6.83;;;4.70;;
773;SDS011;370;48.810;9.150;2023-10-19T14:15:14;9.20;;;4.70;;
773;SDS011;370;48.810;9.150;2023-10-19T14:17:43;7.10;;;4.10;;
773;SDS011;370;48.810;9.150;2023-10-19T14:20:12;7.60;;;4.10;;
773;SDS011;370;48.810;9.150;2023-10-19T14:22:40;11.10;;;5.00;;
773;SDS011;370;48.810;9.150;2023-10-19T14:25:07;9.10;;;4.10;;
773;SDS011;370;48.810;9.150;2023-10-19T14:27:37;8.70;;;4.70;;
773;SDS011;370;48.810;9.150;2023-10-19T14:30:06;10.30;;;5.00;;
773;SDS011;370;48.810;9.150;2023-10-19T14:32:36;7.53;;;4.13;;
773;SDS011;370;48.810;9.150;2023-10-19T14:35:03;7.13;;;4.13;;
773;SDS011;370;48.810;9.150;2023-10-19T14:37:31;9.03;;;4.20;;
773;SDS011;370;48.810;9.150;2023-10-19T14:39:57;13.23;;;5.13;;
773;SDS011;370;48.810;9.150;2023-10-19T14:42:25;10.10;;;5.00;;
773;SDS011;370;48.810;9.150;2023-10-19T14:44:55;10.90;;;4.97;;
773;SDS011;370;48.810;9.150;2023-10-19T14:47:22;8.97;;;4.63;;
773;SDS011;370;48.810;9.150;2023-10-19T14:49:50;10.27;;;5.13;;
773;SDS011;370;48.810;9.150;2023-10-19T14:52:17;10.00;;;5.07;;
773;SDS011;370;48.810;9.150;2023-10-19T14:54:46;17.23;;;5.60;;
773;SDS011;370;48.810;9.150;2023-10-19T14:57:13;10.43;;;5.40;;
773;SDS011;370;48.810;9.150;2023-10-19T14:59:40;12.30;;;5.83;;
773;SDS011;370;48.810;9.150;2023-10-19T15:02:07;10.30;;;4.77;;
773;SDS011;370;48.810;9.150;2023-10-19T15:04:37;6.97;;;4.33;;
773;SDS011;370;48.810;9.150;2023-10-19T15:07:05;8.07;;;4.67;;
773;SDS011;370;48.810;9.150;2023-10-19T15:09:33;7.40;;;4.20;;
773;SDS011;370;48.810;9.150;2023-10-19T15:11:59;9.83;;;4.40;;
773;SDS011;370;48.810;9.150;2023-10-19T15:14:28;11.30;;;4.87;;
773;SDS011;370;48.810;9.150;2023-10-19T15:16:54;8.50;;;4.30;;
773;SDS011;370;48.810;9.150;2023-10-19T15:19:21;9.23;;;5.10;;
773;SDS011;370;48.810;9.150;2023-10-19T15:21:49;10.33;;;4.27;;
773;SDS011;370;48.810;9.150;2023-10-19T15:24:17;9.90;;;4.87;;
773;SDS011;370;48.810;9.150;2023-10-19T15:26:43;7.03;;;4.50;;
773;SDS011;370;48.810;9.150;2023-10-19T15:29:10;11.00;;;5.30;;
773;SDS011;370;48.810;9.150;2023-10-19T15:31:37;8.50;;;5.90;;
773;SDS011;370;48.810;9.150;2023-10-19T15:34:04;10.87;;;5.30;;
773;SDS011;370;48.810;9.150;2023-10-19T15:36:30;8.27;;;4.23;;
773;SDS011;370;48.810;9.150;2023-10-19T15:38:57;10.10;;;4.17;;
773;SDS011;370;48.810;9.150;2023-10-19T15:41:26;11.93;;;4.43;;
773;SDS011;370;48.810;9.150;2023-10-19T15:43:52;11.03;;;4.70;;
773;SDS011;370;48.810;9.150;2023-10-19T15:46:19;6.63;;;4.07;;
773;SDS011;370;48.810;9.150;2023-10-19T15:48:48;9.63;;;4.30;;
773;SDS011;370;48.810;9.150;2023-10-19T15:51:15;9.00;;;4.60;;
773;SDS011;370;48.810;9.150;2023-10-19T15:53:42;9.83;;;3.83;;